createdAt,value
2022-12-14T00:01:28.216Z,9.80
2022-12-14T00:03:55.945Z,10.60
2022-12-14T00:06:25.462Z,10.70
2022-12-14T00:08:56.755Z,10.23
2022-12-14T00:11:24.095Z,10.50
2022-12-14T00:14:00.299Z,10.10
2022-12-14T00:16:29.685Z,10.23
2022-12-14T00:18:59.882Z,11.10
2022-12-14T00:21:27.706Z,10.73
2022-12-14T00:23:55.266Z,11.60
2022-12-14T00:26:31.012Z,11.23
2022-12-14T00:28:58.935Z,11.27
2022-12-14T00:31:25.887Z,11.90
2022-12-14T00:33:52.987Z,11.97
2022-12-14T00:36:20.117Z,11.20
2022-12-14T00:38:46.689Z,11.60
2022-12-14T00:41:13.232Z,10.73
2022-12-14T00:43:40.157Z,11.73
2022-12-14T00:46:07.209Z,11.43
2022-12-14T00:48:34.356Z,12.33
2022-12-14T00:51:00.988Z,12.83
2022-12-14T00:53:27.794Z,11.17
2022-12-14T00:55:54.632Z,10.87
2022-12-14T00:58:23.251Z,11.43
2022-12-14T01:01:06.790Z,11.60
2022-12-14T01:03:34.330Z,11.13
2022-12-14T01:06:01.072Z,12.23
2022-12-14T01:08:35.126Z,11.70
2022-12-14T01:11:06.565Z,11.30
2022-12-14T01:13:33.712Z,10.60
2022-12-14T01:16:06.158Z,11.73
2022-12-14T01:18:35.137Z,11.60
2022-12-14T01:21:19.961Z,11.80
2022-12-14T01:23:47.754Z,11.37
2022-12-14T01:26:16.221Z,11.77
2022-12-14T01:28:43.076Z,11.20
2022-12-14T01:31:12.582Z,12.00
2022-12-14T01:33:39.316Z,10.80
2022-12-14T01:36:17.713Z,11.57
2022-12-14T01:38:45.368Z,10.53
2022-12-14T01:41:39.534Z,10.93
2022-12-14T01:44:09.077Z,12.23
2022-12-14T01:46:57.988Z,10.87
2022-12-14T01:49:30.189Z,11.13
2022-12-14T01:52:14.672Z,10.43
2022-12-14T01:54:56.469Z,11.07
2022-12-14T01:57:39.051Z,11.57
2022-12-14T02:00:08.926Z,10.73
2022-12-14T02:02:39.552Z,11.43
2022-12-14T02:05:09.196Z,10.90
2022-12-14T02:07:36.204Z,11.67
2022-12-14T02:10:05.433Z,11.50
2022-12-14T02:12:38.740Z,11.00
2022-12-14T02:15:06.121Z,10.73
2022-12-14T02:17:32.844Z,11.17
2022-12-14T02:19:59.427Z,11.47
2022-12-14T02:23:15.124Z,10.50
2022-12-14T02:26:09.856Z,10.50
2022-12-14T02:29:01.561Z,10.67
2022-12-14T02:31:48.860Z,12.13
2022-12-14T02:34:41.190Z,11.13
2022-12-14T02:37:26.328Z,11.40
2022-12-14T02:40:04.128Z,11.47
2022-12-14T02:43:09.343Z,12.07
2022-12-14T02:45:50.333Z,11.27
2022-12-14T02:48:20.847Z,11.53
2022-12-14T02:50:59.635Z,11.70
2022-12-14T02:53:48.965Z,10.70
2022-12-14T02:56:22.681Z,11.40
2022-12-14T02:58:50.985Z,10.97
2022-12-14T03:01:26.009Z,11.47
2022-12-14T03:03:52.643Z,10.97
2022-12-14T03:06:28.054Z,12.07
2022-12-14T03:09:17.564Z,11.57
2022-12-14T03:11:56.095Z,11.23
2022-12-14T03:14:31.442Z,11.40
2022-12-14T03:17:09.677Z,11.17
2022-12-14T03:19:41.410Z,11.53
2022-12-14T03:22:11.652Z,11.13
2022-12-14T03:24:43.306Z,11.73
2022-12-14T03:27:22.129Z,11.33
2022-12-14T03:29:58.971Z,10.80
2022-12-14T03:32:29.422Z,11.47
2022-12-14T03:35:01.265Z,11.73
2022-12-14T03:37:54.681Z,10.97
2022-12-14T03:40:29.547Z,11.17
2022-12-14T03:43:20.788Z,9.97
2022-12-14T03:46:19.852Z,11.67
2022-12-14T03:48:53.560Z,11.37
2022-12-14T03:51:28.272Z,10.43
2022-12-14T03:54:06.678Z,10.73
2022-12-14T03:56:48.294Z,11.67
2022-12-14T03:59:39.374Z,10.73
2022-12-14T04:02:14.315Z,11.30
2022-12-14T04:04:50.966Z,11.50
2022-12-14T04:07:26.509Z,11.40
2022-12-14T04:09:59.186Z,11.33
2022-12-14T04:12:54.424Z,10.77
2022-12-14T04:15:50.494Z,10.10
2022-12-14T04:18:52.115Z,11.43
2022-12-14T04:21:43.004Z,10.87
2022-12-14T04:24:36.156Z,11.13
2022-12-14T04:27:32.662Z,11.33
2022-12-14T04:30:01.939Z,12.13
2022-12-14T04:32:51.793Z,10.50
2022-12-14T04:35:28.427Z,10.27
2022-12-14T04:38:00.772Z,11.20
2022-12-14T04:40:45.996Z,11.80
2022-12-14T04:43:17.101Z,11.33
2022-12-14T04:45:52.258Z,11.13
2022-12-14T04:48:54.246Z,11.57
2022-12-14T04:51:31.424Z,10.60
2022-12-14T04:54:09.220Z,11.07
2022-12-14T04:56:54.999Z,10.90
2022-12-14T04:59:22.541Z,11.03
2022-12-14T05:02:17.232Z,11.87
2022-12-14T05:04:59.996Z,10.67
2022-12-14T05:07:40.247Z,11.20
2022-12-14T05:10:11.162Z,10.57
2022-12-14T05:13:03.417Z,10.73
2022-12-14T05:15:42.675Z,10.77
2022-12-14T05:18:10.189Z,10.33
2022-12-14T05:20:36.849Z,10.83
2022-12-14T05:23:03.460Z,10.33
2022-12-14T05:25:30.099Z,10.27
2022-12-14T05:27:56.763Z,10.40
2022-12-14T05:30:23.565Z,10.37
2022-12-14T05:32:50.190Z,10.37
2022-12-14T05:35:17.085Z,9.83
2022-12-14T05:37:43.622Z,11.23
2022-12-14T05:40:11.067Z,10.30
2022-12-14T05:42:44.133Z,10.47
2022-12-14T05:45:13.037Z,10.50
2022-12-14T05:47:40.002Z,9.67
2022-12-14T05:50:07.826Z,10.37
2022-12-14T05:52:34.848Z,9.57
2022-12-14T05:55:04.554Z,9.57
2022-12-14T05:57:31.898Z,9.40
2022-12-14T05:59:58.495Z,10.23
2022-12-14T06:02:25.281Z,10.33
2022-12-14T06:04:51.947Z,10.53
2022-12-14T06:07:21.776Z,10.00
2022-12-14T06:09:52.519Z,10.10
2022-12-14T06:12:19.124Z,10.13
2022-12-14T06:14:45.808Z,10.57
2022-12-14T06:17:12.763Z,10.63
2022-12-14T06:19:39.368Z,10.40
2022-12-14T06:22:06.341Z,10.37
2022-12-14T06:24:33.086Z,9.80
2022-12-14T06:26:59.678Z,9.97
2022-12-14T06:29:26.455Z,10.10
2022-12-14T06:31:53.092Z,10.07
2022-12-14T06:34:23.413Z,10.23
2022-12-14T06:36:51.493Z,12.40
2022-12-14T06:39:18.147Z,9.77
2022-12-14T06:41:48.615Z,10.07
2022-12-14T06:44:15.195Z,9.40
2022-12-14T06:46:42.521Z,9.40
2022-12-14T06:49:13.846Z,9.33
2022-12-14T06:51:40.754Z,10.70
2022-12-14T06:54:10.333Z,9.40
2022-12-14T06:56:37.659Z,9.70
2022-12-14T06:59:05.368Z,10.23
2022-12-14T07:01:32.054Z,9.73
2022-12-14T07:03:59.566Z,9.37
2022-12-14T07:06:27.890Z,9.43
2022-12-14T07:08:59.235Z,10.30
2022-12-14T07:11:26.891Z,9.70
2022-12-14T07:13:54.333Z,9.23
2022-12-14T07:16:23.993Z,10.60
2022-12-14T07:18:51.436Z,8.83
2022-12-14T07:21:19.769Z,10.07
2022-12-14T07:23:48.176Z,9.73
2022-12-14T07:26:23.769Z,9.43
2022-12-14T07:28:51.424Z,9.40
2022-12-14T07:31:23.236Z,9.37
2022-12-14T07:33:53.011Z,9.50
2022-12-14T07:36:21.267Z,9.90
2022-12-14T07:38:49.766Z,9.33
2022-12-14T07:41:25.472Z,9.93
2022-12-14T07:43:54.226Z,9.73
2022-12-14T07:46:26.427Z,9.63
2022-12-14T07:48:55.383Z,9.80
2022-12-14T07:51:25.255Z,10.37
2022-12-14T07:53:52.442Z,10.10
2022-12-14T07:56:25.233Z,10.47
2022-12-14T07:58:52.530Z,9.93
2022-12-14T08:01:22.289Z,10.33
2022-12-14T08:03:51.825Z,9.93
2022-12-14T08:06:19.836Z,9.97
2022-12-14T08:08:46.556Z,10.37
2022-12-14T08:11:14.435Z,10.60
2022-12-14T08:13:43.216Z,9.87
2022-12-14T08:16:15.266Z,9.20
2022-12-14T08:18:42.972Z,10.10
2022-12-14T08:21:12.573Z,9.17
2022-12-14T08:23:39.234Z,9.47
2022-12-14T08:26:07.170Z,9.13
2022-12-14T08:28:35.854Z,10.17
2022-12-14T08:31:14.893Z,10.07
2022-12-14T08:33:42.723Z,10.77
2022-12-14T08:36:15.036Z,10.00
2022-12-14T08:38:42.292Z,9.80
2022-12-14T08:41:11.685Z,10.43
2022-12-14T08:43:39.279Z,10.50
2022-12-14T08:46:07.067Z,10.53
2022-12-14T08:48:34.061Z,10.77
2022-12-14T08:51:09.327Z,10.03
2022-12-14T08:53:37.384Z,10.07
2022-12-14T08:56:10.472Z,9.47
2022-12-14T08:58:37.610Z,9.67
2022-12-14T09:01:09.852Z,9.73
2022-12-14T09:03:36.539Z,10.00
2022-12-14T09:06:09.226Z,9.87
2022-12-14T09:08:36.116Z,9.80
2022-12-14T09:11:04.693Z,9.67
2022-12-14T09:13:32.081Z,9.30
2022-12-14T09:16:09.143Z,9.73
2022-12-14T09:18:35.874Z,9.87
2022-12-14T09:21:02.512Z,9.80
2022-12-14T09:23:31.102Z,8.80
2022-12-14T09:26:02.970Z,9.23
2022-12-14T09:28:30.839Z,8.40
2022-12-14T09:30:58.861Z,9.87
2022-12-14T09:33:26.899Z,9.63
2022-12-14T09:35:58.922Z,9.30
2022-12-14T09:38:25.566Z,9.63
2022-12-14T09:41:07.285Z,9.53
2022-12-14T09:43:42.033Z,9.40
2022-12-14T09:46:36.994Z,10.07
2022-12-14T09:49:04.172Z,9.27
2022-12-14T09:51:36.852Z,9.83
2022-12-14T09:54:08.243Z,9.60
2022-12-14T09:56:37.348Z,10.37
2022-12-14T09:59:05.208Z,10.40
2022-12-14T10:05:11.240Z,9.37
2022-12-14T10:07:40.636Z,9.77
2022-12-14T10:10:48.345Z,9.57
2022-12-14T10:13:32.425Z,9.97
2022-12-14T10:16:08.338Z,9.30
2022-12-14T10:18:59.148Z,9.93
2022-12-14T10:21:33.890Z,10.80
2022-12-14T10:24:03.272Z,9.93
2022-12-14T10:26:38.232Z,10.33
2022-12-14T10:29:21.846Z,9.83
2022-12-14T10:32:13.838Z,10.00
2022-12-14T10:34:41.790Z,10.23
2022-12-14T10:37:26.498Z,11.03
2022-12-14T10:40:22.034Z,9.90
2022-12-14T10:43:34.991Z,10.37
2022-12-14T10:46:40.463Z,10.07
2022-12-14T10:49:28.935Z,9.47
2022-12-14T10:52:05.295Z,10.67
2022-12-14T10:54:45.201Z,10.07
2022-12-14T10:57:19.716Z,9.57
2022-12-14T11:00:03.332Z,9.80
2022-12-14T11:02:37.967Z,10.10
2022-12-14T11:05:23.401Z,9.87
2022-12-14T11:07:50.112Z,9.67
2022-12-14T11:10:22.773Z,9.20
2022-12-14T11:13:12.506Z,9.73
2022-12-14T11:15:45.386Z,10.50
2022-12-14T11:18:11.969Z,9.13
2022-12-14T11:20:51.072Z,9.90
2022-12-14T11:23:25.381Z,9.23
2022-12-14T11:25:58.861Z,9.67
2022-12-14T11:28:39.637Z,10.00
2022-12-14T11:31:12.664Z,10.13
2022-12-14T11:33:44.826Z,11.87
2022-12-14T11:36:25.941Z,11.60
2022-12-14T11:39:01.223Z,10.43
2022-12-14T11:41:40.191Z,11.20
2022-12-14T11:44:15.644Z,10.13
2022-12-14T11:46:45.060Z,9.63
2022-12-14T11:49:27.651Z,10.10
2022-12-14T11:52:10.336Z,9.60
2022-12-14T11:54:39.888Z,9.80
2022-12-14T11:57:17.463Z,9.83
2022-12-14T12:00:00.047Z,9.00
2022-12-14T12:02:39.460Z,9.37
2022-12-14T12:05:13.084Z,9.70
2022-12-14T12:07:45.852Z,9.63
2022-12-14T12:10:12.343Z,9.27
2022-12-14T12:12:52.264Z,8.73
2022-12-14T12:15:43.104Z,8.83
2022-12-14T12:18:19.877Z,9.10
2022-12-14T12:20:58.994Z,9.20
2022-12-14T12:23:53.212Z,9.13
2022-12-14T12:26:25.171Z,8.73
2022-12-14T12:29:00.026Z,9.27
2022-12-14T12:31:34.019Z,9.27
2022-12-14T12:34:13.560Z,9.60
2022-12-14T12:36:51.721Z,9.57
2022-12-14T12:39:28.144Z,10.07
2022-12-14T12:42:21.564Z,10.10
2022-12-14T12:44:58.123Z,9.47
2022-12-14T12:47:46.628Z,9.33
2022-12-14T12:50:21.455Z,11.20
2022-12-14T12:53:03.231Z,10.67
2022-12-14T12:55:35.779Z,10.67
2022-12-14T12:58:09.400Z,10.10
2022-12-14T13:00:38.211Z,9.30
2022-12-14T13:03:17.015Z,9.60
2022-12-14T13:05:47.056Z,10.70
2022-12-14T13:08:22.948Z,9.97
2022-12-14T13:13:43.796Z,8.90
2022-12-14T13:16:31.009Z,9.60
2022-12-14T13:19:50.502Z,8.80
2022-12-14T13:22:24.777Z,8.70
2022-12-14T13:24:58.869Z,9.20
2022-12-14T13:27:50.524Z,8.90
2022-12-14T13:30:50.125Z,8.87
2022-12-14T13:33:41.238Z,9.80
2022-12-14T13:36:37.293Z,8.93
2022-12-14T13:39:29.824Z,8.60
2022-12-14T13:42:26.601Z,8.53
2022-12-14T13:44:59.978Z,8.50
2022-12-14T13:47:40.976Z,9.47
2022-12-14T13:50:41.934Z,9.70
2022-12-14T13:53:34.857Z,9.83
2022-12-14T13:56:02.300Z,9.27
2022-12-14T13:58:43.207Z,9.63
2022-12-14T14:01:15.715Z,9.73
2022-12-14T14:03:46.177Z,10.03
2022-12-14T14:06:12.815Z,10.17
2022-12-14T14:08:44.896Z,10.27
2022-12-14T14:11:39.516Z,9.87
2022-12-14T14:14:43.768Z,10.17
2022-12-14T14:17:26.719Z,9.87
2022-12-14T14:19:56.087Z,9.70
2022-12-14T14:22:25.990Z,9.57
2022-12-14T14:25:31.288Z,9.97
2022-12-14T14:28:00.284Z,10.30
2022-12-14T14:30:41.181Z,11.00
2022-12-14T14:33:45.299Z,11.43
2022-12-14T14:36:33.605Z,11.10
2022-12-14T14:39:31.193Z,11.17
2022-12-14T14:41:54.365Z,9.23
2022-12-14T14:44:43.656Z,10.77
2022-12-14T14:47:20.846Z,10.33
2022-12-14T14:49:53.213Z,11.03
2022-12-14T14:52:41.491Z,10.93
2022-12-14T14:58:30.432Z,10.20
2022-12-14T15:01:07.962Z,10.03
2022-12-14T15:03:55.242Z,10.17
2022-12-14T15:06:26.345Z,10.77
2022-12-14T15:09:05.217Z,10.47
2022-12-14T15:11:48.858Z,10.80
2022-12-14T15:14:18.480Z,11.40
2022-12-14T15:16:45.698Z,11.73
2022-12-14T15:19:33.495Z,10.80
2022-12-14T15:22:05.147Z,11.93
2022-12-14T15:24:39.898Z,12.33
2022-12-14T15:27:32.626Z,11.03
2022-12-14T15:30:11.650Z,10.47
2022-12-14T15:32:47.213Z,11.23
2022-12-14T15:35:17.895Z,11.50
2022-12-14T15:37:54.754Z,11.13
2022-12-14T15:40:26.992Z,11.77
2022-12-14T15:42:59.157Z,12.87
2022-12-14T15:45:31.462Z,12.60
2022-12-14T15:48:24.566Z,12.57
2022-12-14T15:50:57.430Z,12.63
2022-12-14T15:53:34.321Z,13.23
2022-12-14T15:56:18.591Z,12.23
2022-12-14T15:58:45.720Z,12.43
2022-12-14T16:01:16.933Z,12.87
2022-12-14T16:03:53.736Z,12.83
2022-12-14T16:06:22.124Z,12.57
2022-12-14T16:08:54.960Z,12.27
2022-12-14T16:11:35.099Z,13.33
2022-12-14T16:14:09.470Z,13.93
2022-12-14T16:16:36.285Z,12.50
2022-12-14T16:19:25.700Z,12.50
2022-12-14T16:22:15.892Z,11.93
2022-12-14T16:25:19.670Z,12.47
2022-12-14T16:27:50.333Z,12.87
2022-12-14T16:30:23.134Z,12.87
2022-12-14T16:32:52.956Z,12.57
2022-12-14T16:35:26.117Z,15.60
2022-12-14T16:37:55.665Z,14.60
2022-12-14T16:40:33.561Z,14.80
2022-12-14T16:43:00.641Z,16.17
2022-12-14T16:45:36.526Z,17.90
2022-12-14T16:48:13.143Z,14.80
2022-12-14T16:50:56.636Z,15.20
2022-12-14T16:53:29.560Z,13.33
2022-12-14T16:56:05.810Z,14.07
2022-12-14T16:58:33.371Z,13.53
2022-12-14T17:01:03.780Z,14.60
2022-12-14T17:03:31.666Z,14.50
2022-12-14T17:06:06.883Z,14.90
2022-12-14T17:08:34.080Z,15.53
2022-12-14T17:11:02.078Z,15.97
2022-12-14T17:13:29.307Z,16.20
2022-12-14T17:16:07.579Z,17.13
2022-12-14T17:18:38.990Z,15.60
2022-12-14T17:21:08.541Z,15.87
2022-12-14T17:23:38.300Z,16.40
2022-12-14T17:26:05.238Z,16.93
2022-12-14T17:28:34.541Z,16.83
2022-12-14T17:31:02.869Z,17.30
2022-12-14T17:33:31.612Z,18.23
2022-12-14T17:35:58.655Z,18.17
2022-12-14T17:38:25.202Z,18.63
2022-12-14T17:40:53.756Z,18.10
2022-12-14T17:43:24.505Z,17.47
2022-12-14T17:45:51.301Z,17.10
2022-12-14T17:48:18.269Z,17.77
2022-12-14T17:50:47.798Z,18.20
2022-12-14T17:53:16.567Z,17.33
2022-12-14T17:55:43.871Z,17.60
2022-12-14T17:58:11.321Z,18.37
2022-12-14T18:00:56.354Z,17.83
2022-12-14T18:03:23.226Z,17.27
2022-12-14T18:05:50.344Z,17.20
2022-12-14T18:08:17.877Z,18.27
2022-12-14T18:10:45.365Z,18.20
2022-12-14T18:13:12.740Z,18.97
2022-12-14T18:15:51.567Z,18.47
2022-12-14T18:18:22.896Z,18.93
2022-12-14T18:20:55.213Z,18.00
2022-12-14T18:23:22.780Z,19.13
2022-12-14T18:25:52.711Z,18.40
2022-12-14T18:28:19.955Z,19.40
2022-12-14T18:30:51.143Z,18.77
2022-12-14T18:33:21.042Z,19.33
2022-12-14T18:35:48.837Z,18.70
2022-12-14T18:38:15.745Z,19.50
2022-12-14T18:40:47.792Z,20.60
2022-12-14T18:43:23.456Z,18.97
2022-12-14T18:45:52.256Z,19.47
2022-12-14T18:48:19.216Z,19.00
2022-12-14T18:50:46.133Z,18.97
2022-12-14T18:53:18.625Z,20.00
2022-12-14T18:55:45.622Z,18.90
2022-12-14T18:58:20.740Z,19.57
2022-12-14T19:00:48.907Z,18.87
2022-12-14T19:03:15.607Z,18.90
2022-12-14T19:05:42.446Z,18.53
2022-12-14T19:08:10.791Z,18.67
2022-12-14T19:10:40.730Z,19.90
2022-12-14T19:13:09.506Z,18.53
2022-12-14T19:15:36.295Z,18.53
2022-12-14T19:18:03.044Z,18.97
2022-12-14T19:20:30.123Z,17.43
2022-12-14T19:22:57.064Z,19.20
2022-12-14T19:25:24.705Z,19.43
2022-12-14T19:30:39.795Z,19.23
2022-12-14T19:33:06.711Z,19.57
2022-12-14T19:35:33.670Z,19.50
2022-12-14T19:38:00.304Z,20.53
2022-12-14T19:40:26.929Z,19.67
2022-12-14T19:42:53.716Z,19.33
2022-12-14T19:45:20.680Z,20.07
2022-12-14T19:47:47.677Z,20.03
2022-12-14T19:50:15.068Z,18.87
2022-12-14T19:52:42.350Z,19.83
2022-12-14T19:55:10.401Z,19.80
2022-12-14T19:57:38.664Z,19.67
2022-12-14T20:00:09.274Z,19.70
2022-12-14T20:02:36.675Z,19.57
2022-12-14T20:05:09.471Z,21.17
2022-12-14T20:07:41.909Z,19.33
2022-12-14T20:10:13.538Z,18.90
2022-12-14T20:12:40.348Z,19.43
2022-12-14T20:15:10.265Z,20.90
2022-12-14T20:17:36.985Z,20.90
2022-12-14T20:20:03.817Z,19.50
2022-12-14T20:22:31.159Z,19.80
2022-12-14T20:25:02.272Z,20.33
2022-12-14T20:30:11.640Z,19.73
2022-12-14T20:32:42.339Z,21.70
2022-12-14T20:35:11.924Z,20.77
2022-12-14T20:37:38.543Z,19.90
2022-12-14T20:40:08.331Z,19.50
2022-12-14T20:42:35.392Z,22.60
2022-12-14T20:45:06.808Z,20.83
2022-12-14T20:47:33.983Z,21.03
2022-12-14T20:50:00.625Z,20.73
2022-12-14T20:52:27.193Z,21.53
2022-12-14T20:54:53.814Z,21.97
2022-12-14T20:57:20.450Z,21.20
2022-12-14T20:59:47.132Z,20.03
2022-12-14T21:02:17.223Z,20.30
2022-12-14T21:04:44.237Z,20.97
2022-12-14T21:07:11.435Z,20.20
2022-12-14T21:09:38.392Z,20.50
2022-12-14T21:12:23.355Z,20.67
2022-12-14T21:14:54.738Z,20.23
2022-12-14T21:17:24.189Z,21.50
2022-12-14T21:19:51.556Z,19.73
2022-12-14T21:22:21.880Z,22.43
2022-12-14T21:25:06.007Z,22.07
2022-12-14T21:27:35.240Z,20.33
2022-12-14T21:30:01.898Z,21.83
2022-12-14T21:32:28.694Z,21.57
2022-12-14T21:34:55.290Z,20.30
2022-12-14T21:37:22.040Z,22.27
2022-12-14T21:39:54.183Z,22.60
2022-12-14T21:42:25.767Z,21.13
2022-12-14T21:44:53.826Z,21.83
2022-12-14T21:47:26.099Z,23.03
2022-12-14T21:49:53.379Z,21.67
2022-12-14T21:52:23.018Z,21.50
2022-12-14T21:54:49.919Z,20.63
2022-12-14T21:57:41.343Z,21.00
2022-12-14T22:00:09.906Z,20.17
2022-12-14T22:02:36.645Z,21.30
2022-12-14T22:05:03.564Z,21.63
2022-12-14T22:07:32.568Z,20.67
2022-12-14T22:09:59.513Z,21.57
2022-12-14T22:12:26.283Z,21.13
2022-12-14T22:14:53.152Z,21.43
2022-12-14T22:17:19.727Z,22.43
2022-12-14T22:19:46.306Z,20.50
2022-12-14T22:22:16.951Z,20.83
2022-12-14T22:24:44.590Z,21.23
2022-12-14T22:27:12.598Z,20.13
2022-12-14T22:29:39.696Z,20.07
2022-12-14T22:32:07.554Z,21.33
2022-12-14T22:34:34.512Z,21.70
2022-12-14T22:37:01.174Z,21.33
2022-12-14T22:39:27.762Z,19.87
2022-12-14T22:41:54.478Z,22.23
2022-12-14T22:44:21.085Z,21.00
2022-12-14T22:46:47.741Z,21.47
2022-12-14T22:49:18.988Z,20.73
2022-12-14T22:51:45.920Z,22.13
2022-12-14T22:54:24.757Z,22.13
2022-12-14T22:57:04.340Z,22.57
2022-12-14T22:59:37.382Z,22.77
2022-12-14T23:02:04.534Z,22.33
2022-12-14T23:04:31.575Z,22.23
2022-12-14T23:06:58.142Z,21.47
2022-12-14T23:09:43.520Z,20.97
2022-12-14T23:12:28.873Z,21.00
2022-12-14T23:15:14.208Z,20.73
2022-12-14T23:17:59.544Z,21.40
2022-12-14T23:20:44.879Z,21.23
2022-12-14T23:23:30.754Z,22.07
2022-12-14T23:26:20.761Z,21.57
2022-12-14T23:29:06.142Z,23.23
2022-12-14T23:31:51.642Z,21.80
2022-12-14T23:34:37.031Z,20.70
2022-12-14T23:37:22.310Z,21.67
2022-12-14T23:40:07.737Z,21.60
2022-12-14T23:42:53.064Z,21.20
2022-12-14T23:45:38.612Z,22.33
2022-12-14T23:48:24.017Z,20.97
2022-12-14T23:51:09.508Z,22.60
2022-12-14T23:53:55.020Z,20.97
2022-12-14T23:56:40.362Z,22.03
2022-12-14T23:59:31.650Z,21.33
